createdAt,value
2024-03-12T00:01:45.183Z,7.63
2024-03-12T00:04:12.870Z,9.07
2024-03-12T00:06:40.471Z,7.83
2024-03-12T00:09:11.087Z,7.93
2024-03-12T00:11:38.674Z,7.40
2024-03-12T00:14:05.993Z,7.93
2024-03-12T00:16:35.421Z,7.63
2024-03-12T00:19:04.334Z,7.97
2024-03-12T00:21:31.989Z,8.47
2024-03-12T00:24:00.422Z,8.90
2024-03-12T00:26:30.356Z,8.67
2024-03-12T00:28:57.745Z,9.30
2024-03-12T00:31:25.997Z,8.30
2024-03-12T00:33:53.486Z,8.90
2024-03-12T00:36:20.894Z,9.10
2024-03-12T00:38:48.277Z,9.27
2024-03-12T00:41:15.651Z,8.73
2024-03-12T00:43:43.952Z,9.30
2024-03-12T00:46:12.218Z,9.13
2024-03-12T00:48:39.652Z,9.33
2024-03-12T00:51:10.301Z,8.77
2024-03-12T00:53:37.619Z,9.60
2024-03-12T00:56:05.366Z,8.73
2024-03-12T00:58:35.273Z,8.87
2024-03-12T01:01:05.077Z,9.60
2024-03-12T01:03:32.478Z,9.60
2024-03-12T01:05:59.761Z,9.30
2024-03-12T01:08:27.395Z,9.30
2024-03-12T01:10:54.720Z,9.57
2024-03-12T01:13:22.172Z,9.57
2024-03-12T01:15:49.805Z,9.30
2024-03-12T01:18:17.392Z,8.67
2024-03-12T01:20:45.460Z,13.10
2024-03-12T01:23:14.961Z,9.20
2024-03-12T01:25:42.946Z,9.03
2024-03-12T01:28:12.386Z,9.43
2024-03-12T01:30:41.109Z,7.80
2024-03-12T01:33:09.079Z,8.87
2024-03-12T01:35:41.087Z,10.60
2024-03-12T01:38:12.112Z,12.10
2024-03-12T01:40:40.933Z,10.13
2024-03-12T01:43:09.432Z,12.13
2024-03-12T01:45:37.967Z,12.20
2024-03-12T01:48:11.309Z,10.87
2024-03-12T01:50:41.042Z,11.37
2024-03-12T01:53:09.881Z,11.53
2024-03-12T01:55:44.918Z,9.67
2024-03-12T01:58:18.610Z,9.87
2024-03-12T02:00:47.384Z,8.37
2024-03-12T02:03:16.532Z,8.77
2024-03-12T02:05:44.005Z,8.83
2024-03-12T02:08:12.765Z,10.53
2024-03-12T02:10:41.326Z,9.00
2024-03-12T02:13:08.620Z,11.53
2024-03-12T02:15:36.323Z,11.43
2024-03-12T02:18:04.175Z,12.37
2024-03-12T02:20:31.611Z,10.60
2024-03-12T02:23:00.734Z,11.00
2024-03-12T02:25:28.379Z,9.83
2024-03-12T02:27:57.956Z,9.40
2024-03-12T02:30:25.521Z,10.07
2024-03-12T02:32:54.158Z,11.17
2024-03-12T02:35:21.748Z,10.50
2024-03-12T02:37:49.171Z,9.83
2024-03-12T02:40:17.438Z,11.20
2024-03-12T02:42:46.056Z,10.00
2024-03-12T02:45:18.052Z,12.27
2024-03-12T02:47:47.809Z,12.87
2024-03-12T02:50:17.771Z,11.47
2024-03-12T02:52:47.046Z,10.93
2024-03-12T02:55:14.972Z,10.80
2024-03-12T02:57:42.954Z,12.40
2024-03-12T03:00:16.225Z,11.43
2024-03-12T03:02:45.696Z,12.77
2024-03-12T03:05:14.805Z,13.77
2024-03-12T03:07:43.784Z,15.37
2024-03-12T03:10:13.329Z,13.60
2024-03-12T03:12:43.432Z,13.60
2024-03-12T03:15:14.721Z,13.27
2024-03-12T03:17:47.455Z,14.03
2024-03-12T03:20:18.037Z,12.90
2024-03-12T03:22:46.694Z,13.13
2024-03-12T03:25:15.116Z,15.47
2024-03-12T03:27:43.695Z,14.63
2024-03-12T03:30:19.953Z,15.07
2024-03-12T03:32:49.026Z,16.83
2024-03-12T03:35:19.819Z,15.87
2024-03-12T03:37:47.393Z,16.13
2024-03-12T03:40:24.584Z,15.53
2024-03-12T03:42:53.443Z,13.80
2024-03-12T03:45:21.246Z,14.57
2024-03-12T03:47:48.631Z,12.90
2024-03-12T03:50:15.950Z,15.47
2024-03-12T03:52:43.416Z,13.00
2024-03-12T03:55:11.520Z,13.87
2024-03-12T03:57:38.891Z,15.13
2024-03-12T04:00:14.457Z,16.37
2024-03-12T04:02:45.008Z,19.37
2024-03-12T04:05:14.094Z,17.30
2024-03-12T04:07:42.578Z,15.97
2024-03-12T04:10:12.515Z,16.53
2024-03-12T04:12:43.869Z,18.47
2024-03-12T04:15:13.120Z,18.73
2024-03-12T04:17:45.053Z,17.40
2024-03-12T04:20:13.176Z,16.50
2024-03-12T04:22:44.972Z,15.73
2024-03-12T04:25:14.098Z,15.17
2024-03-12T04:27:41.699Z,16.90
2024-03-12T04:30:13.516Z,15.40
2024-03-12T04:32:42.129Z,15.43
2024-03-12T04:35:11.488Z,17.50
2024-03-12T04:37:39.180Z,15.50
2024-03-12T04:40:10.602Z,18.90
2024-03-12T04:42:40.010Z,17.83
2024-03-12T04:45:09.066Z,16.50
2024-03-12T04:47:39.423Z,16.57
2024-03-12T04:50:09.636Z,16.27
2024-03-12T04:52:37.156Z,17.00
2024-03-12T04:55:06.858Z,15.60
2024-03-12T04:57:37.193Z,16.67
2024-03-12T05:00:21.163Z,16.67
2024-03-12T05:02:51.194Z,15.23
2024-03-12T05:05:22.972Z,16.73
2024-03-12T05:07:54.056Z,15.97
2024-03-12T05:10:22.780Z,14.23
2024-03-12T05:12:53.250Z,15.63
2024-03-12T05:15:21.739Z,15.13
2024-03-12T05:17:50.370Z,16.13
2024-03-12T05:20:19.427Z,15.70
2024-03-12T05:22:47.842Z,14.70
2024-03-12T05:25:25.787Z,16.53
2024-03-12T05:27:53.345Z,14.80
2024-03-12T05:30:23.441Z,15.10
2024-03-12T05:32:51.360Z,16.10
2024-03-12T05:35:23.906Z,13.43
2024-03-12T05:38:04.131Z,18.80
2024-03-12T05:40:53.109Z,19.30
2024-03-12T05:43:38.895Z,17.37
2024-03-12T05:46:25.004Z,18.33
2024-03-12T05:48:52.811Z,20.37
2024-03-12T05:51:21.484Z,17.53
2024-03-12T05:53:49.904Z,18.53
2024-03-12T05:56:21.123Z,20.50
2024-03-12T05:58:48.813Z,21.47
2024-03-12T06:01:17.419Z,21.10
2024-03-12T06:03:45.125Z,19.77
2024-03-12T06:06:12.685Z,19.87
2024-03-12T06:08:40.336Z,17.07
2024-03-12T06:11:07.739Z,20.27
2024-03-12T06:13:35.248Z,21.70
2024-03-12T06:16:02.691Z,21.13
2024-03-12T06:18:30.180Z,18.00
2024-03-12T06:20:57.647Z,19.93
2024-03-12T06:23:27.147Z,21.00
2024-03-12T06:25:55.060Z,22.53
2024-03-12T06:28:23.572Z,22.17
2024-03-12T06:30:50.931Z,23.23
2024-03-12T06:33:19.282Z,22.40
2024-03-12T06:35:48.921Z,23.93
2024-03-12T06:38:17.394Z,25.27
2024-03-12T06:40:45.049Z,23.40
2024-03-12T06:43:15.368Z,23.50
2024-03-12T06:45:44.212Z,29.57
2024-03-12T06:48:12.430Z,23.73
2024-03-12T06:50:39.913Z,24.63
2024-03-12T06:53:07.480Z,24.53
2024-03-12T06:55:34.814Z,26.43
2024-03-12T06:58:06.307Z,24.10
2024-03-12T07:00:38.659Z,27.10
2024-03-12T07:03:06.448Z,26.93
2024-03-12T07:05:45.037Z,29.23
2024-03-12T07:08:12.415Z,28.50
2024-03-12T07:10:42.246Z,28.63
2024-03-12T07:13:09.984Z,28.50
2024-03-12T07:15:43.054Z,27.67
2024-03-12T07:18:10.712Z,27.67
2024-03-12T07:20:38.118Z,29.53
2024-03-12T07:23:07.166Z,29.47
2024-03-12T07:25:35.030Z,29.53
2024-03-12T07:28:08.316Z,28.30
2024-03-12T07:30:37.393Z,29.73
2024-03-12T07:33:05.733Z,27.67
2024-03-12T07:35:36.612Z,32.40
2024-03-12T07:38:05.186Z,33.07
2024-03-12T07:40:35.815Z,30.73
2024-03-12T07:43:07.523Z,29.13
2024-03-12T07:45:37.083Z,29.27
2024-03-12T07:48:07.401Z,32.93
2024-03-12T07:50:36.324Z,27.87
2024-03-12T07:53:07.149Z,32.13
2024-03-12T07:55:36.722Z,29.30
2024-03-12T07:58:04.624Z,27.43
2024-03-12T08:00:34.057Z,31.40
2024-03-12T08:03:01.456Z,31.67
2024-03-12T08:05:32.989Z,32.63
2024-03-12T08:08:02.268Z,33.72
2024-03-12T08:10:30.252Z,31.70
2024-03-12T08:12:57.724Z,35.30
2024-03-12T08:15:25.410Z,41.47
2024-03-12T08:17:57.276Z,35.00
2024-03-12T08:20:28.331Z,33.40
2024-03-12T08:22:55.608Z,36.93
2024-03-12T08:25:23.850Z,40.20
2024-03-12T08:27:51.233Z,39.03
2024-03-12T08:30:19.984Z,37.43
2024-03-12T08:32:48.207Z,33.83
2024-03-12T08:35:15.822Z,36.53
2024-03-12T08:37:43.411Z,40.67
2024-03-12T08:40:15.809Z,38.80
2024-03-12T08:42:50.580Z,36.70
2024-03-12T08:45:25.190Z,31.27
2024-03-12T08:47:52.793Z,33.80
2024-03-12T08:50:20.181Z,34.53
2024-03-12T08:52:47.682Z,33.47
2024-03-12T08:55:15.452Z,36.00
2024-03-12T08:57:43.461Z,38.97
2024-03-12T09:00:14.755Z,39.63
2024-03-12T09:02:42.381Z,38.20
2024-03-12T09:05:10.992Z,35.67
2024-03-12T09:07:38.553Z,35.80
2024-03-12T09:10:13.227Z,39.00
2024-03-12T09:12:42.601Z,38.03
2024-03-12T09:15:11.268Z,39.53
2024-03-12T09:17:40.232Z,35.00
2024-03-12T09:20:12.084Z,36.20
2024-03-12T09:22:41.113Z,38.87
2024-03-12T09:25:10.140Z,32.63
2024-03-12T09:27:38.875Z,33.60
2024-03-12T09:30:09.104Z,37.83
2024-03-12T09:32:36.568Z,36.83
2024-03-12T09:35:04.215Z,35.53
2024-03-12T09:37:33.498Z,32.77
2024-03-12T09:40:02.325Z,31.47
2024-03-12T09:42:32.361Z,36.27
2024-03-12T09:45:00.963Z,34.93
2024-03-12T09:47:28.440Z,34.47
2024-03-12T09:49:57.340Z,36.63
2024-03-12T09:52:27.203Z,34.90
2024-03-12T09:54:54.800Z,32.67
2024-03-12T09:57:24.396Z,34.20
2024-03-12T09:59:53.463Z,30.43
2024-03-12T10:02:22.026Z,30.73
2024-03-12T10:04:50.817Z,28.83
2024-03-12T10:07:18.398Z,26.97
2024-03-12T10:09:47.532Z,29.73
2024-03-12T10:12:20.775Z,26.10
2024-03-12T10:14:48.174Z,27.20
2024-03-12T10:17:17.262Z,25.87
2024-03-12T10:19:49.051Z,25.57
2024-03-12T10:22:22.721Z,24.73
2024-03-12T10:24:51.296Z,25.13
2024-03-12T10:27:19.540Z,26.53
2024-03-12T10:29:47.004Z,26.13
2024-03-12T10:32:29.367Z,27.13
2024-03-12T10:34:57.644Z,25.47
2024-03-12T10:37:36.412Z,23.13
2024-03-12T10:40:18.367Z,27.07
2024-03-12T10:43:03.191Z,26.23
2024-03-12T10:45:31.213Z,27.40
2024-03-12T10:48:01.387Z,23.87
2024-03-12T10:50:28.801Z,28.13
2024-03-12T10:52:56.528Z,26.63
2024-03-12T10:55:25.246Z,27.27
2024-03-12T10:57:56.323Z,25.40
2024-03-12T11:00:27.427Z,26.70
2024-03-12T11:02:59.014Z,28.10
2024-03-12T11:05:29.320Z,29.53
2024-03-12T11:07:59.708Z,25.93
2024-03-12T11:10:34.767Z,24.67
2024-03-12T11:13:03.868Z,22.97
2024-03-12T11:15:33.042Z,26.93
2024-03-12T11:18:01.080Z,23.43
2024-03-12T11:20:30.238Z,24.30
2024-03-12T11:23:02.136Z,25.50
2024-03-12T11:25:47.007Z,23.93
2024-03-12T11:28:26.397Z,25.10
2024-03-12T11:30:56.999Z,27.13
2024-03-12T11:33:40.389Z,24.77
2024-03-12T11:36:11.998Z,25.53
2024-03-12T11:38:39.457Z,26.93
2024-03-12T11:41:08.127Z,26.80
2024-03-12T11:43:41.928Z,25.57
2024-03-12T11:46:19.071Z,25.13
2024-03-12T11:48:48.498Z,24.00
2024-03-12T11:51:16.908Z,27.27
2024-03-12T11:53:46.766Z,23.47
2024-03-12T11:56:23.463Z,25.03
2024-03-12T11:59:02.658Z,27.87
2024-03-12T12:01:35.197Z,25.67
2024-03-12T12:04:09.405Z,25.73
2024-03-12T12:06:37.300Z,28.77
2024-03-12T12:09:10.639Z,24.77
2024-03-12T12:11:42.257Z,24.20
2024-03-12T12:14:11.113Z,21.27
2024-03-12T12:16:39.263Z,23.03
2024-03-12T12:19:16.219Z,23.53
2024-03-12T12:21:49.286Z,23.90
2024-03-12T12:24:17.252Z,26.37
2024-03-12T12:26:47.056Z,26.27
2024-03-12T12:29:16.940Z,28.13
2024-03-12T12:31:45.218Z,28.13
2024-03-12T12:34:14.245Z,23.03
2024-03-12T12:36:47.442Z,27.83
2024-03-12T12:39:18.687Z,26.70
2024-03-12T12:41:47.711Z,28.73
2024-03-12T12:44:18.493Z,21.97
2024-03-12T12:46:49.761Z,23.30
2024-03-12T12:49:19.035Z,25.57
2024-03-12T12:51:47.966Z,26.40
2024-03-12T12:54:20.345Z,24.73
2024-03-12T12:56:48.274Z,28.20
2024-03-12T12:59:21.781Z,32.90
2024-03-12T13:01:50.348Z,30.53
2024-03-12T13:04:28.934Z,31.53
2024-03-12T13:06:58.453Z,37.70
2024-03-12T13:09:37.477Z,39.80
2024-03-12T13:12:09.607Z,36.40
2024-03-12T13:14:38.613Z,38.37
2024-03-12T13:17:08.716Z,40.67
2024-03-12T13:19:36.120Z,41.10
2024-03-12T13:22:10.300Z,38.23
2024-03-12T13:24:43.634Z,42.80
2024-03-12T13:27:11.208Z,43.50
2024-03-12T13:29:39.065Z,42.97
2024-03-12T13:32:06.956Z,44.00
2024-03-12T13:34:34.488Z,39.37
2024-03-12T13:37:02.603Z,41.63
2024-03-12T13:39:30.983Z,44.53
2024-03-12T13:41:58.343Z,49.87
2024-03-12T13:44:25.726Z,42.67
2024-03-12T13:46:52.981Z,42.70
2024-03-12T13:49:21.924Z,41.40
2024-03-12T13:51:49.421Z,43.50
2024-03-12T13:54:16.914Z,40.07
2024-03-12T13:56:46.741Z,47.60
2024-03-12T13:59:15.509Z,42.87
2024-03-12T14:01:44.045Z,46.83
2024-03-12T14:04:13.069Z,46.37
2024-03-12T14:06:41.550Z,43.87
2024-03-12T14:09:13.658Z,49.70
2024-03-12T14:11:41.489Z,37.53
2024-03-12T14:14:12.772Z,35.93
2024-03-12T14:16:41.025Z,36.40
2024-03-12T14:19:08.435Z,35.47
2024-03-12T14:21:37.277Z,38.00
2024-03-12T14:24:06.122Z,39.10
2024-03-12T14:26:34.161Z,32.97
2024-03-12T14:29:01.520Z,33.37
2024-03-12T14:31:30.012Z,33.50
2024-03-12T14:33:57.361Z,33.37
2024-03-12T14:36:24.702Z,30.33
2024-03-12T14:38:54.813Z,28.07
2024-03-12T14:41:24.150Z,28.17
2024-03-12T14:43:51.650Z,26.93
2024-03-12T14:46:19.435Z,25.23
2024-03-12T14:48:47.311Z,33.00
2024-03-12T14:51:15.103Z,28.13
2024-03-12T14:53:42.453Z,28.10
2024-03-12T14:56:10.705Z,25.97
2024-03-12T14:58:38.290Z,29.00
2024-03-12T15:01:07.801Z,25.07
2024-03-12T15:03:36.058Z,25.73
2024-03-12T15:06:04.594Z,23.50
2024-03-12T15:08:31.904Z,23.90
2024-03-12T15:10:59.305Z,22.43
2024-03-12T15:13:26.715Z,21.17
2024-03-12T15:15:54.392Z,23.33
2024-03-12T15:18:24.813Z,24.37
2024-03-12T15:20:52.476Z,21.70
2024-03-12T15:23:19.788Z,19.60
2024-03-12T15:25:47.710Z,19.37
2024-03-12T15:28:15.160Z,17.17
2024-03-12T15:30:43.948Z,17.90
2024-03-12T15:33:12.436Z,17.03
2024-03-12T15:35:40.781Z,15.27
2024-03-12T15:38:08.400Z,17.90
2024-03-12T15:40:39.169Z,16.50
2024-03-12T15:43:07.217Z,15.63
2024-03-12T15:45:34.889Z,14.80
2024-03-12T15:48:02.454Z,15.23
2024-03-12T15:50:30.061Z,14.13
2024-03-12T15:52:58.338Z,14.13
2024-03-12T15:55:27.447Z,15.87
2024-03-12T15:57:56.222Z,14.47
2024-03-12T16:00:23.929Z,14.30
2024-03-12T16:02:55.777Z,16.50
2024-03-12T16:05:23.988Z,13.17
2024-03-12T16:07:52.828Z,15.30
2024-03-12T16:10:22.040Z,13.93
2024-03-12T16:12:49.802Z,13.47
2024-03-12T16:15:19.471Z,13.30
2024-03-12T16:17:47.166Z,14.00
2024-03-12T16:20:15.635Z,13.87
2024-03-12T16:22:43.954Z,16.93
2024-03-12T16:25:12.275Z,14.60
2024-03-12T16:27:41.261Z,15.73
2024-03-12T16:30:12.452Z,15.90
2024-03-12T16:32:41.845Z,14.40
2024-03-12T16:35:09.988Z,14.77
2024-03-12T16:37:40.426Z,17.03
2024-03-12T16:40:10.730Z,16.27
2024-03-12T16:42:38.681Z,19.67
2024-03-12T16:45:07.508Z,16.53
2024-03-12T16:47:35.133Z,19.77
2024-03-12T16:50:06.214Z,16.83
2024-03-12T16:52:33.573Z,16.73
2024-03-12T16:55:04.972Z,16.57
2024-03-12T16:57:35.294Z,19.13
2024-03-12T17:00:12.347Z,19.47
2024-03-12T17:02:43.752Z,19.30
2024-03-12T17:05:23.969Z,16.03
2024-03-12T17:07:57.508Z,20.33
2024-03-12T17:10:26.096Z,18.33
2024-03-12T17:12:54.308Z,18.00
2024-03-12T17:15:24.828Z,18.37
2024-03-12T17:17:53.203Z,20.17
2024-03-12T17:20:20.630Z,20.10
2024-03-12T17:22:49.055Z,19.93
2024-03-12T17:25:20.619Z,19.50
2024-03-12T17:27:50.616Z,17.23
2024-03-12T17:30:18.242Z,21.37
2024-03-12T17:32:47.663Z,17.47
2024-03-12T17:35:16.672Z,19.00
2024-03-12T17:37:48.834Z,19.90
2024-03-12T17:40:17.098Z,20.80
2024-03-12T17:42:46.729Z,20.40
2024-03-12T17:45:17.959Z,22.97
2024-03-12T17:47:56.716Z,22.83
2024-03-12T17:50:28.863Z,26.80
2024-03-12T17:53:08.762Z,26.90
2024-03-12T17:55:37.519Z,24.80
2024-03-12T17:58:07.548Z,27.10
2024-03-12T18:00:37.011Z,24.83
2024-03-12T18:03:05.468Z,19.03
2024-03-12T18:05:33.028Z,25.57
2024-03-12T18:08:06.232Z,22.23
2024-03-12T18:10:35.423Z,22.97
2024-03-12T18:13:04.640Z,22.63
2024-03-12T18:15:32.086Z,21.07
2024-03-12T18:17:59.966Z,20.70
2024-03-12T18:20:35.003Z,26.23
2024-03-12T18:23:02.347Z,25.43
2024-03-12T18:25:30.924Z,24.57
2024-03-12T18:27:59.314Z,22.77
2024-03-12T18:30:27.799Z,26.00
2024-03-12T18:32:58.230Z,22.10
2024-03-12T18:35:25.713Z,21.77
2024-03-12T18:37:53.122Z,25.80
2024-03-12T18:40:21.312Z,24.57
2024-03-12T18:42:49.628Z,22.63
2024-03-12T18:45:19.912Z,21.43
2024-03-12T18:47:49.750Z,24.03
2024-03-12T18:50:19.214Z,21.73
2024-03-12T18:52:47.745Z,21.37
2024-03-12T18:55:18.351Z,24.63
2024-03-12T18:57:47.397Z,20.87
2024-03-12T19:00:20.159Z,20.33
2024-03-12T19:02:53.003Z,20.83
2024-03-12T19:05:23.568Z,22.93
2024-03-12T19:07:53.351Z,21.43
2024-03-12T19:10:21.815Z,21.60
2024-03-12T19:12:50.705Z,23.43
2024-03-12T19:15:22.872Z,23.47
2024-03-12T19:17:52.413Z,21.63
2024-03-12T19:20:23.873Z,20.43
2024-03-12T19:22:57.903Z,27.27
2024-03-12T19:25:27.476Z,21.17
2024-03-12T19:27:55.272Z,21.90
2024-03-12T19:30:26.181Z,22.83
2024-03-12T19:32:54.596Z,23.07
2024-03-12T19:35:22.880Z,26.73
2024-03-12T19:37:50.690Z,21.33
2024-03-12T19:40:21.289Z,24.33
2024-03-12T19:42:50.745Z,24.83
2024-03-12T19:45:29.068Z,26.83
2024-03-12T19:47:58.057Z,29.53
2024-03-12T19:50:26.643Z,21.97
2024-03-12T19:52:56.733Z,30.97
2024-03-12T19:55:30.911Z,22.67
2024-03-12T19:58:03.060Z,29.43
2024-03-12T20:00:34.329Z,24.20
2024-03-12T20:03:06.852Z,27.40
2024-03-12T20:05:37.248Z,26.83
2024-03-12T20:08:06.298Z,27.80
2024-03-12T20:10:34.057Z,26.10
2024-03-12T20:13:06.061Z,26.90
2024-03-12T20:15:34.766Z,24.90
2024-03-12T20:18:02.794Z,26.03
2024-03-12T20:20:30.346Z,27.03
2024-03-12T20:22:59.270Z,28.20
2024-03-12T20:25:27.770Z,26.27
2024-03-12T20:27:56.679Z,24.40
2024-03-12T20:30:29.275Z,27.23
2024-03-12T20:32:58.225Z,27.33
2024-03-12T20:35:25.784Z,25.07
2024-03-12T20:37:53.438Z,27.77
2024-03-12T20:40:23.909Z,23.73
2024-03-12T20:42:51.338Z,25.73
2024-03-12T20:45:22.967Z,22.97
2024-03-12T20:47:50.504Z,23.50
2024-03-12T20:50:20.472Z,27.90
2024-03-12T20:52:48.684Z,27.60
2024-03-12T20:55:17.215Z,25.47
2024-03-12T20:57:48.460Z,20.80
2024-03-12T21:00:19.744Z,24.70
2024-03-12T21:02:49.166Z,24.40
2024-03-12T21:05:17.709Z,24.23
2024-03-12T21:07:45.261Z,24.27
2024-03-12T21:10:13.565Z,23.23
2024-03-12T21:12:43.868Z,27.80
2024-03-12T21:15:11.650Z,25.53
2024-03-12T21:17:39.386Z,27.87
2024-03-12T21:20:13.810Z,27.00
2024-03-12T21:22:42.192Z,21.83
2024-03-12T21:25:11.857Z,28.03
2024-03-12T21:27:39.548Z,25.27
2024-03-12T21:30:14.303Z,26.13
2024-03-12T21:32:42.357Z,27.67
2024-03-12T21:35:11.002Z,27.40
2024-03-12T21:37:39.803Z,27.93
2024-03-12T21:40:12.928Z,25.97
2024-03-12T21:42:44.050Z,27.20
2024-03-12T21:45:12.981Z,27.40
2024-03-12T21:47:41.674Z,25.27
2024-03-12T21:50:10.400Z,29.70
2024-03-12T21:52:37.707Z,26.23
2024-03-12T21:55:07.588Z,28.47
2024-03-12T21:57:38.900Z,27.20
2024-03-12T22:00:13.000Z,27.93
2024-03-12T22:02:40.820Z,28.90
2024-03-12T22:05:08.300Z,27.83
2024-03-12T22:07:38.543Z,27.83
2024-03-12T22:10:09.510Z,30.23
2024-03-12T22:12:37.123Z,28.70
2024-03-12T22:15:08.307Z,25.93
2024-03-12T22:20:06.879Z,29.50
2024-03-12T22:22:34.343Z,30.37
2024-03-12T22:25:02.148Z,33.73
2024-03-12T22:27:29.725Z,30.73
2024-03-12T22:29:57.259Z,27.90
2024-03-12T22:32:27.400Z,31.80
2024-03-12T22:34:56.152Z,28.90
2024-03-12T22:37:23.860Z,32.03
2024-03-12T22:39:51.853Z,34.27
2024-03-12T22:42:19.568Z,30.77
2024-03-12T22:44:47.390Z,29.47
2024-03-12T22:47:15.386Z,34.37
2024-03-12T22:49:44.963Z,32.50
2024-03-12T22:52:14.356Z,31.43
2024-03-12T22:54:42.570Z,29.30
2024-03-12T22:57:10.912Z,33.73
2024-03-12T22:59:38.900Z,31.77
2024-03-12T23:02:10.849Z,32.83
2024-03-12T23:04:38.659Z,36.63
2024-03-12T23:07:06.349Z,31.80
2024-03-12T23:09:34.452Z,27.97
2024-03-12T23:12:02.322Z,37.93
2024-03-12T23:14:31.069Z,30.07
2024-03-12T23:16:59.777Z,30.73
2024-03-12T23:19:28.945Z,35.77
2024-03-12T23:21:56.434Z,28.80
2024-03-12T23:24:24.324Z,30.13
2024-03-12T23:26:56.220Z,37.27
2024-03-12T23:29:23.539Z,32.77
2024-03-12T23:31:51.887Z,29.80
2024-03-12T23:34:19.111Z,33.70
2024-03-12T23:36:46.777Z,29.70
2024-03-12T23:39:16.663Z,33.43
2024-03-12T23:41:44.192Z,29.27
2024-03-12T23:44:14.592Z,33.57
2024-03-12T23:46:43.495Z,32.67
2024-03-12T23:49:10.781Z,34.07
2024-03-12T23:51:38.812Z,34.23
2024-03-12T23:54:07.652Z,32.20
2024-03-12T23:56:34.967Z,33.80
2024-03-12T23:59:02.247Z,35.47
